Acadia Natl Park, Maine
Current Conditions -  °F | °C
As of 2:15 PM on Monday 22 Dec 2014 (Local Time) from KBHB Reporting Station
Overcast Overcast  
Wind Chill: 34°   Ceiling: 4200
Heat Index: 37°   Visibility: 10mi
Dew Point: 34°   Wind: 5mph
Humidity: 87%   Direction: 70°ENE
Pressure: 30.39"   Gusts: NA
Location:  44.3°N, 68.25°W
Report Text: KBHB 221915Z AUTO 07004KT 10SM FEW027 OVC042 03/01 A3039 RMK AO1
Loading
Personal Weather Stations






























Interactive Weather Map New forecast layout! Learn more

10-Day Weather Forecast

Advertisements
Track Severe Weather on mobile